Time;durP1;ratioP1;P1;durP2;ratioP2;P2;SDS_P1;SDS_P2;PMS_P1;PMS_P2;Temp;Humidity;BMP_temperature;BMP_pressure;BME280_temperature;BME280_humidity;BME280_pressure;Samples;Min_cycle;Max_cycle;Signal;HPM_P1;HPM_P2
2023/07/15 00:02:21;;;;;;;1.83;1.73;;;;;;;;;;4727236;30;20428;-77
2023/07/15 00:04:49;;;;;;;2.72;2.00;;;;;;;;;;4725016;30;20486;-81
2023/07/15 00:07:17;;;;;;;2.08;1.98;;;;;;;;;;4728139;30;20487;-82
2023/07/15 00:09:44;;;;;;;2.45;1.90;;;;;;;;;;4727425;30;20071;-81
2023/07/15 00:12:12;;;;;;;2.42;2.05;;;;;;;;;;4726960;30;20412;-78
2023/07/15 00:14:39;;;;;;;1.80;1.70;;;;;;;;;;4725163;30;20401;-81
2023/07/15 00:17:08;;;;;;;2.25;2.05;;;;;;;;;;4723148;30;20107;-77
2023/07/15 00:19:40;;;;;;;1.67;1.60;;;;;;;;;;4722636;30;20503;-77
2023/07/15 00:22:09;;;;;;;1.75;1.65;;;;;;;;;;4727724;30;20162;-77
2023/07/15 00:24:37;;;;;;;1.70;1.60;;;;;;;;;;4720799;30;20063;-78
2023/07/15 00:27:04;;;;;;;2.22;2.13;;;;;;;;;;4725634;30;20154;-77
2023/07/15 00:29:32;;;;;;;2.20;2.00;;;;;;;;;;4725567;30;20121;-78
2023/07/15 00:32:04;;;;;;;1.80;1.70;;;;;;;;;;4733956;30;20083;-76
2023/07/15 00:34:32;;;;;;;2.00;1.90;;;;;;;;;;4729947;30;20049;-77
2023/07/15 00:37:00;;;;;;;2.20;2.10;;;;;;;;;;4736482;30;20230;-78
2023/07/15 00:39:27;;;;;;;2.20;2.10;;;;;;;;;;4719787;30;20133;-77
2023/07/15 00:41:57;;;;;;;4.40;2.38;;;;;;;;;;4729507;30;20147;-78
2023/07/15 00:44:24;;;;;;;2.30;2.10;;;;;;;;;;4737381;30;20091;-82
2023/07/15 00:47:04;;;;;;;2.08;1.98;;;;;;;;;;4726800;30;20078;-78
2023/07/15 00:49:32;;;;;;;2.03;1.92;;;;;;;;;;4727025;30;20110;-77
2023/07/15 00:52:04;;;;;;;2.28;2.10;;;;;;;;;;4728903;30;20057;-78
2023/07/15 00:54:35;;;;;;;1.95;1.85;;;;;;;;;;4728151;30;20053;-77
2023/07/15 00:57:03;;;;;;;2.20;2.10;;;;;;;;;;4732040;30;20821;-77
2023/07/15 00:59:31;;;;;;;4.15;2.22;;;;;;;;;;4734164;30;20069;-77
2023/07/15 01:01:59;;;;;;;2.28;2.17;;;;;;;;;;4729295;30;20065;-77
2023/07/15 01:04:27;;;;;;;2.13;2.00;;;;;;;;;;4726708;30;20063;-77
2023/07/15 01:06:54;;;;;;;2.00;1.90;;;;;;;;;;4725544;30;20056;-76
2023/07/15 01:09:22;;;;;;;2.25;2.13;;;;;;;;;;4727782;30;20067;-77
2023/07/15 01:11:50;;;;;;;2.10;1.65;;;;;;;;;;4727743;30;20068;-77
2023/07/15 01:14:18;;;;;;;2.00;1.90;;;;;;;;;;4727131;30;20263;-76
2023/07/15 01:16:47;;;;;;;2.05;1.95;;;;;;;;;;4727636;30;20061;-76
2023/07/15 01:19:18;;;;;;;2.22;2.13;;;;;;;;;;4717367;30;20045;-76
2023/07/15 01:21:50;;;;;;;2.75;1.90;;;;;;;;;;4719767;30;20309;-77
2023/07/15 01:24:20;;;;;;;2.10;2.00;;;;;;;;;;4720958;30;20056;-77
2023/07/15 01:26:50;;;;;;;2.55;2.35;;;;;;;;;;4724356;30;20060;-76
2023/07/15 01:29:17;;;;;;;3.03;2.35;;;;;;;;;;4724543;30;20068;-77
2023/07/15 01:31:45;;;;;;;2.33;2.15;;;;;;;;;;4721760;30;20265;-76
2023/07/15 01:34:14;;;;;;;2.63;2.42;;;;;;;;;;4724971;30;20131;-76
2023/07/15 01:36:42;;;;;;;2.13;2.03;;;;;;;;;;4725640;30;20155;-77
2023/07/15 01:39:09;;;;;;;2.63;2.22;;;;;;;;;;4722415;30;20048;-76
2023/07/15 01:41:37;;;;;;;2.20;2.10;;;;;;;;;;4721992;30;20716;-76
2023/07/15 01:44:04;;;;;;;2.10;2.00;;;;;;;;;;4722432;30;20424;-77
2023/07/15 01:46:34;;;;;;;2.35;2.25;;;;;;;;;;4718894;30;20052;-76
2023/07/15 01:49:03;;;;;;;2.40;2.17;;;;;;;;;;4719633;30;20079;-77
2023/07/15 01:51:32;;;;;;;2.22;2.13;;;;;;;;;;4721265;30;20060;-76
2023/07/15 01:53:59;;;;;;;1.88;1.77;;;;;;;;;;4722344;30;20060;-76
2023/07/15 01:56:27;;;;;;;2.20;2.10;;;;;;;;;;4723078;30;20761;-76
2023/07/15 01:58:54;;;;;;;2.15;2.05;;;;;;;;;;4721840;30;20397;-76
2023/07/15 02:01:22;;;;;;;2.30;2.20;;;;;;;;;;4726909;30;20412;-77
2023/07/15 02:03:50;;;;;;;3.33;2.50;;;;;;;;;;4726417;30;20419;-77
2023/07/15 02:06:18;;;;;;;2.17;2.05;;;;;;;;;;4723970;30;20071;-76
2023/07/15 02:08:46;;;;;;;2.17;1.98;;;;;;;;;;4727903;30;20067;-77
2023/07/15 02:11:13;;;;;;;2.55;2.38;;;;;;;;;;4728925;30;20757;-77
2023/07/15 02:13:41;;;;;;;2.50;2.40;;;;;;;;;;4729608;30;20053;-76
2023/07/15 02:16:08;;;;;;;3.00;2.63;;;;;;;;;;4729574;30;20076;-77
2023/07/15 02:18:35;;;;;;;2.88;2.67;;;;;;;;;;4728802;30;20345;-77
2023/07/15 02:21:04;;;;;;;2.60;2.50;;;;;;;;;;4727173;30;20053;-76
2023/07/15 02:23:32;;;;;;;2.55;2.35;;;;;;;;;;4729501;30;20056;-76
2023/07/15 02:26:00;;;;;;;2.30;2.10;;;;;;;;;;4729626;30;20052;-77
2023/07/15 02:28:28;;;;;;;2.28;2.17;;;;;;;;;;4727077;30;20084;-77
2023/07/15 02:30:55;;;;;;;2.65;2.45;;;;;;;;;;4728491;30;20052;-77
2023/07/15 02:33:23;;;;;;;2.72;2.53;;;;;;;;;;4726541;30;20056;-76
2023/07/15 02:35:51;;;;;;;2.55;2.35;;;;;;;;;;4729597;30;20079;-77
2023/07/15 02:38:19;;;;;;;2.65;2.45;;;;;;;;;;4731803;30;20090;-76
2023/07/15 02:40:48;;;;;;;3.42;2.55;;;;;;;;;;4746633;30;20108;-76
2023/07/15 02:43:19;;;;;;;4.38;2.60;;;;;;;;;;4744196;30;20056;-77
2023/07/15 02:45:50;;;;;;;2.22;2.13;;;;;;;;;;4730524;30;20084;-76
2023/07/15 02:48:21;;;;;;;2.67;2.40;;;;;;;;;;4729582;30;20069;-76
2023/07/15 02:50:52;;;;;;;2.57;2.20;;;;;;;;;;4728960;30;20413;-76
2023/07/15 02:53:20;;;;;;;2.45;2.25;;;;;;;;;;4729556;30;20135;-77
2023/07/15 02:55:48;;;;;;;2.45;2.30;;;;;;;;;;4723438;30;20073;-77
2023/07/15 02:58:17;;;;;;;3.58;2.50;;;;;;;;;;4730411;30;20523;-77
2023/07/15 03:00:45;;;;;;;2.92;2.72;;;;;;;;;;4724953;30;20052;-77
2023/07/15 03:03:12;;;;;;;3.00;2.47;;;;;;;;;;4725628;30;20601;-77
2023/07/15 03:05:45;;;;;;;3.08;2.80;;;;;;;;;;4727574;30;20111;-77
2023/07/15 03:08:14;;;;;;;2.60;2.50;;;;;;;;;;4729383;30;20057;-77
2023/07/15 03:10:44;;;;;;;2.50;2.30;;;;;;;;;;4729198;30;20590;-77
2023/07/15 03:13:12;;;;;;;2.70;2.50;;;;;;;;;;4729658;30;20056;-77
2023/07/15 03:15:42;;;;;;;2.72;2.40;;;;;;;;;;4728525;30;20444;-76
2023/07/15 03:18:10;;;;;;;2.60;2.40;;;;;;;;;;4728511;30;20609;-76
2023/07/15 03:20:37;;;;;;;2.40;2.30;;;;;;;;;;4729080;30;20052;-78
2023/07/15 03:23:05;;;;;;;2.42;2.22;;;;;;;;;;4727531;30;20093;-77
2023/07/15 03:25:33;;;;;;;2.58;2.45;;;;;;;;;;4728524;30;20449;-76
2023/07/15 03:28:01;;;;;;;2.70;2.50;;;;;;;;;;4727763;30;20130;-76
2023/07/15 03:30:28;;;;;;;2.60;2.40;;;;;;;;;;4727699;30;20130;-76
2023/07/15 03:32:56;;;;;;;2.92;2.60;;;;;;;;;;4726450;30;20107;-77
2023/07/15 03:35:25;;;;;;;2.63;2.42;;;;;;;;;;4729078;30;20504;-77
2023/07/15 03:37:53;;;;;;;2.75;2.42;;;;;;;;;;4727875;30;20058;-76
2023/07/15 03:40:21;;;;;;;5.60;2.40;;;;;;;;;;4725758;30;20061;-76
2023/07/15 03:42:48;;;;;;;2.92;2.72;;;;;;;;;;4722590;30;20239;-77
2023/07/15 03:45:17;;;;;;;2.80;2.60;;;;;;;;;;4721742;30;20141;-77
2023/07/15 03:47:44;;;;;;;2.53;2.33;;;;;;;;;;4726179;30;20084;-77
2023/07/15 03:50:12;;;;;;;2.60;2.40;;;;;;;;;;4725053;30;20060;-76
2023/07/15 03:52:39;;;;;;;2.97;2.72;;;;;;;;;;4722009;30;20061;-76
2023/07/15 03:55:08;;;;;;;2.70;2.50;;;;;;;;;;4727172;30;20056;-76
2023/07/15 03:57:38;;;;;;;2.45;2.35;;;;;;;;;;4725699;30;20117;-77
2023/07/15 04:00:17;;;;;;;3.65;2.60;;;;;;;;;;4719014;30;20052;-77
2023/07/15 04:02:49;;;;;;;3.20;2.63;;;;;;;;;;4717934;30;20057;-77
2023/07/15 04:05:17;;;;;;;2.70;2.50;;;;;;;;;;4719093;30;20045;-76
2023/07/15 04:07:57;;;;;;;2.50;2.40;;;;;;;;;;4737835;30;20072;-77
2023/07/15 04:10:24;;;;;;;2.97;2.33;;;;;;;;;;4728659;30;20106;-77
2023/07/15 04:12:52;;;;;;;2.80;2.60;;;;;;;;;;4729017;30;20125;-77
2023/07/15 04:15:19;;;;;;;2.50;2.40;;;;;;;;;;4725316;30;20056;-76
2023/07/15 04:17:47;;;;;;;2.70;2.50;;;;;;;;;;4744264;24;20057;-81
2023/07/15 04:20:18;;;;;;;2.92;2.70;;;;;;;;;;4726815;30;20196;-77
2023/07/15 04:22:45;;;;;;;2.65;2.55;;;;;;;;;;4729698;30;20076;-79
2023/07/15 04:25:14;;;;;;;3.83;2.60;;;;;;;;;;4732652;30;20570;-80
2023/07/15 04:27:42;;;;;;;2.45;2.35;;;;;;;;;;4736833;30;20065;-78
2023/07/15 04:30:10;;;;;;;2.50;2.40;;;;;;;;;;4737338;30;20048;-81
2023/07/15 04:32:38;;;;;;;3.70;2.58;;;;;;;;;;4734207;30;20123;-78
2023/07/15 04:35:06;;;;;;;3.05;2.60;;;;;;;;;;4742920;30;20455;-78
2023/07/15 04:37:34;;;;;;;3.20;2.60;;;;;;;;;;4728648;30;20143;-80
2023/07/15 04:40:04;;;;;;;2.63;2.42;;;;;;;;;;4729231;30;20470;-78
2023/07/15 04:42:31;;;;;;;2.80;2.60;;;;;;;;;;4741962;30;20583;-78
2023/07/15 04:44:59;;;;;;;2.40;2.30;;;;;;;;;;4728792;30;20048;-78
2023/07/15 04:47:27;;;;;;;2.40;2.30;;;;;;;;;;4733758;30;20123;-78
2023/07/15 04:49:54;;;;;;;2.38;2.28;;;;;;;;;;4729492;30;20102;-79
2023/07/15 04:52:22;;;;;;;2.50;2.30;;;;;;;;;;4718083;30;20056;-78
2023/07/15 04:54:49;;;;;;;2.50;2.15;;;;;;;;;;4722619;30;20052;-80
2023/07/15 04:57:19;;;;;;;3.90;2.05;;;;;;;;;;4735480;30;20056;-78
2023/07/15 04:59:48;;;;;;;2.60;2.40;;;;;;;;;;4721346;30;20068;-80
2023/07/15 05:02:16;;;;;;;4.97;2.78;;;;;;;;;;4727558;30;20072;-79
2023/07/15 05:04:43;;;;;;;7.35;2.50;;;;;;;;;;4729233;30;20452;-78
2023/07/15 05:07:13;;;;;;;2.38;2.25;;;;;;;;;;4722905;30;20053;-81
2023/07/15 05:09:40;;;;;;;2.72;2.17;;;;;;;;;;4725870;30;20160;-79
2023/07/15 05:12:10;;;;;;;2.85;2.17;;;;;;;;;;4724743;30;20057;-78
2023/07/15 05:14:38;;;;;;;2.28;2.17;;;;;;;;;;4723409;30;20048;-78
2023/07/15 05:17:09;;;;;;;3.33;2.40;;;;;;;;;;4730580;30;20388;-81
2023/07/15 05:19:37;;;;;;;2.40;2.30;;;;;;;;;;4729663;30;20134;-81
2023/07/15 05:22:04;;;;;;;2.58;2.35;;;;;;;;;;4726379;30;20088;-80
2023/07/15 05:24:32;;;;;;;2.45;2.35;;;;;;;;;;4721647;30;20071;-80
2023/07/15 05:27:00;;;;;;;2.28;2.17;;;;;;;;;;4723823;30;20142;-79
2023/07/15 05:29:28;;;;;;;2.50;2.22;;;;;;;;;;4729366;30;20421;-82
2023/07/15 05:31:55;;;;;;;3.08;2.22;;;;;;;;;;4726322;30;20106;-80
2023/07/15 05:34:23;;;;;;;2.58;2.38;;;;;;;;;;4727105;30;20076;-78
2023/07/15 05:36:51;;;;;;;2.20;2.00;;;;;;;;;;4730786;30;20068;-77
2023/07/15 05:39:19;;;;;;;2.20;2.10;;;;;;;;;;4725781;30;20052;-80
2023/07/15 05:41:52;;;;;;;2.10;2.00;;;;;;;;;;4725085;30;20067;-77
2023/07/15 05:44:19;;;;;;;2.15;2.05;;;;;;;;;;4721936;30;20558;-81
2023/07/15 05:46:47;;;;;;;2.28;2.15;;;;;;;;;;4725175;30;20063;-81
2023/07/15 05:49:14;;;;;;;2.47;2.38;;;;;;;;;;4724577;30;20067;-80
2023/07/15 05:51:42;;;;;;;2.88;2.00;;;;;;;;;;4725167;30;20064;-77
2023/07/15 05:54:09;;;;;;;2.40;2.20;;;;;;;;;;4722696;30;20059;-78
2023/07/15 05:56:37;;;;;;;2.45;1.98;;;;;;;;;;4713541;30;20143;-79
2023/07/15 05:59:05;;;;;;;2.60;1.92;;;;;;;;;;4718407;30;20525;-81
2023/07/15 06:01:33;;;;;;;3.05;1.90;;;;;;;;;;4721653;30;20049;-77
2023/07/15 06:04:00;;;;;;;2.40;2.17;;;;;;;;;;4721580;30;20079;-77
2023/07/15 06:06:28;;;;;;;1.95;1.85;;;;;;;;;;4724691;30;20060;-80
2023/07/15 06:08:55;;;;;;;4.68;2.45;;;;;;;;;;4726717;30;20061;-78
2023/07/15 06:11:23;;;;;;;2.00;1.90;;;;;;;;;;4722199;30;20060;-78
2023/07/15 06:13:50;;;;;;;1.98;1.88;;;;;;;;;;4724156;30;20056;-79
2023/07/15 06:16:18;;;;;;;3.60;1.92;;;;;;;;;;4729386;30;20134;-76
2023/07/15 06:18:45;;;;;;;2.33;2.20;;;;;;;;;;4722786;30;20052;-77
2023/07/15 06:21:13;;;;;;;1.80;1.70;;;;;;;;;;4723036;30;20051;-76
2023/07/15 06:23:41;;;;;;;2.00;1.90;;;;;;;;;;4732165;30;20053;-77
2023/07/15 06:26:09;;;;;;;1.80;1.70;;;;;;;;;;4725350;30;20056;-80
2023/07/15 06:28:36;;;;;;;2.42;2.22;;;;;;;;;;4721860;30;20067;-77
2023/07/15 06:31:06;;;;;;;2.30;2.10;;;;;;;;;;4727053;30;20586;-77
2023/07/15 06:33:35;;;;;;;1.70;1.63;;;;;;;;;;4724888;30;20424;-78
2023/07/15 06:36:07;;;;;;;2.42;2.22;;;;;;;;;;4723602;30;20055;-77
2023/07/15 06:38:34;;;;;;;;;;;;;;;;;;4726016;30;20052;-78
2023/07/15 06:41:01;;;;;;;2.00;1.90;;;;;;;;;;4729743;30;19930;-78
2023/07/15 06:43:29;;;;;;;1.60;1.60;;;;;;;;;;4730719;30;20068;-77
2023/07/15 06:45:57;;;;;;;1.90;1.80;;;;;;;;;;4730430;30;20056;-77
2023/07/15 06:48:24;;;;;;;1.90;1.80;;;;;;;;;;4731040;30;20060;-77
2023/07/15 06:50:52;;;;;;;1.90;1.80;;;;;;;;;;4728892;30;20056;-79
2023/07/15 06:53:19;;;;;;;1.90;1.80;;;;;;;;;;4730265;30;20052;-80
2023/07/15 06:55:46;;;;;;;2.17;1.85;;;;;;;;;;4729319;30;20358;-81
2023/07/15 06:58:14;;;;;;;2.10;2.00;;;;;;;;;;4729422;30;20153;-78
2023/07/15 07:00:41;;;;;;;3.17;1.90;;;;;;;;;;4728636;30;20060;-78
2023/07/15 07:03:09;;;;;;;2.00;1.90;;;;;;;;;;4727741;30;20052;-79
2023/07/15 07:05:36;;;;;;;2.10;1.92;;;;;;;;;;4727841;30;20130;-78
2023/07/15 07:08:04;;;;;;;2.05;1.95;;;;;;;;;;4726265;30;20056;-78
2023/07/15 07:10:31;;;;;;;1.98;1.88;;;;;;;;;;4743416;30;20060;-81
2023/07/15 07:12:59;;;;;;;2.60;2.33;;;;;;;;;;4730722;30;20174;-80
2023/07/15 07:15:28;;;;;;;3.10;2.10;;;;;;;;;;4730286;30;20126;-81
2023/07/15 07:17:55;;;;;;;2.08;1.88;;;;;;;;;;4726819;30;20052;-80
2023/07/15 07:20:23;;;;;;;2.28;2.17;;;;;;;;;;4729509;30;20431;-77
2023/07/15 07:22:50;;;;;;;3.65;2.08;;;;;;;;;;4728853;30;20056;-77
2023/07/15 07:25:18;;;;;;;3.10;2.00;;;;;;;;;;4728563;30;20059;-78
2023/07/15 07:27:45;;;;;;;2.20;2.10;;;;;;;;;;4726306;30;20060;-80
2023/07/15 07:30:13;;;;;;;2.10;2.00;;;;;;;;;;4722588;30;20048;-77
2023/07/15 07:32:40;;;;;;;2.03;1.92;;;;;;;;;;4722977;30;20064;-80
2023/07/15 07:35:08;;;;;;;2.00;1.90;;;;;;;;;;4726529;30;20049;-80
2023/07/15 07:37:36;;;;;;;2.00;1.80;;;;;;;;;;4726209;30;20049;-80
2023/07/15 07:40:04;;;;;;;2.05;1.95;;;;;;;;;;4729352;30;20045;-77
2023/07/15 07:42:31;;;;;;;3.63;2.08;;;;;;;;;;4727340;30;20428;-80
2023/07/15 07:44:59;;;;;;;2.80;2.03;;;;;;;;;;4729354;30;20074;-79
2023/07/15 07:47:26;;;;;;;1.90;1.80;;;;;;;;;;4729281;30;20072;-77
2023/07/15 07:49:54;;;;;;;2.00;1.80;;;;;;;;;;4724749;30;20057;-80
2023/07/15 07:52:21;;;;;;;1.73;1.63;;;;;;;;;;4728726;30;20060;-78
2023/07/15 07:54:50;;;;;;;1.98;1.80;;;;;;;;;;4729016;30;20053;-80
2023/07/15 07:57:17;;;;;;;2.00;1.80;;;;;;;;;;4727063;30;20037;-77
2023/07/15 07:59:45;;;;;;;2.15;2.05;;;;;;;;;;4727998;30;20500;-77
2023/07/15 08:02:12;;;;;;;1.95;1.85;;;;;;;;;;4719015;30;20048;-79
2023/07/15 08:04:40;;;;;;;1.70;1.60;;;;;;;;;;4728487;30;20071;-77
2023/07/15 08:07:07;;;;;;;1.60;1.60;;;;;;;;;;4724542;30;20499;-78
2023/07/15 08:09:35;;;;;;;1.70;1.60;;;;;;;;;;4727781;30;20111;-78
2023/07/15 08:12:02;;;;;;;2.17;1.60;;;;;;;;;;4729549;30;20056;-77
2023/07/15 08:14:30;;;;;;;2.45;1.83;;;;;;;;;;4725936;30;20061;-80
2023/07/15 08:16:58;;;;;;;1.70;1.60;;;;;;;;;;4725748;30;20076;-77
2023/07/15 08:19:26;;;;;;;2.10;2.00;;;;;;;;;;4729577;30;20416;-79
2023/07/15 08:21:53;;;;;;;1.73;1.63;;;;;;;;;;4727553;30;20059;-80
2023/07/15 08:24:21;;;;;;;1.30;1.30;;;;;;;;;;4729314;30;20184;-78
2023/07/15 08:26:48;;;;;;;1.83;1.73;;;;;;;;;;4726599;30;20122;-79
2023/07/15 08:29:16;;;;;;;1.70;1.60;;;;;;;;;;4731298;30;20609;-78
2023/07/15 08:31:43;;;;;;;2.45;1.70;;;;;;;;;;4727922;30;20090;-78
2023/07/15 08:34:11;;;;;;;1.73;1.63;;;;;;;;;;4727046;30;20764;-79
2023/07/15 08:36:38;;;;;;;1.70;1.60;;;;;;;;;;4725462;30;20495;-80
2023/07/15 08:39:06;;;;;;;1.90;1.63;;;;;;;;;;4725857;30;20107;-78
2023/07/15 08:41:34;;;;;;;1.40;1.40;;;;;;;;;;4730018;30;20124;-78
2023/07/15 08:44:01;;;;;;;1.60;1.50;;;;;;;;;;4730144;30;20142;-77
2023/07/15 08:46:30;;;;;;;1.70;1.60;;;;;;;;;;4731438;30;20056;-79
2023/07/15 08:49:00;;;;;;;1.65;1.55;;;;;;;;;;4722246;30;20375;-78
2023/07/15 08:51:32;;;;;;;1.55;1.45;;;;;;;;;;4728256;30;20135;-79
2023/07/15 08:54:01;;;;;;;1.73;1.63;;;;;;;;;;4726987;30;20063;-80
2023/07/15 08:56:30;;;;;;;1.70;1.60;;;;;;;;;;4725783;30;20083;-78
2023/07/15 08:58:57;;;;;;;1.80;1.70;;;;;;;;;;4721595;30;20060;-77
2023/07/15 09:01:25;;;;;;;1.80;1.70;;;;;;;;;;4727432;30;20057;-78
2023/07/15 09:03:52;;;;;;;1.83;1.73;;;;;;;;;;4727846;30;20052;-78
2023/07/15 09:06:20;;;;;;;1.33;1.30;;;;;;;;;;4728023;30;20056;-78
2023/07/15 09:08:51;;;;;;;1.60;1.50;;;;;;;;;;4729248;30;20049;-79
2023/07/15 09:11:19;;;;;;;2.67;1.90;;;;;;;;;;4729606;30;20056;-80
2023/07/15 09:13:46;;;;;;;2.03;1.92;;;;;;;;;;4729327;30;20122;-79
2023/07/15 09:16:14;;;;;;;1.70;1.60;;;;;;;;;;4729876;30;20139;-77
2023/07/15 09:18:43;;;;;;;1.80;1.70;;;;;;;;;;4727680;30;20111;-77
2023/07/15 09:21:12;;;;;;;1.42;1.40;;;;;;;;;;4723930;30;20680;-79
2023/07/15 09:23:42;;;;;;;1.77;1.67;;;;;;;;;;4725194;30;20056;-77
2023/07/15 09:26:10;;;;;;;4.97;1.70;;;;;;;;;;4726530;30;20060;-79
2023/07/15 09:28:38;;;;;;;2.55;2.40;;;;;;;;;;4726681;30;20433;-79
2023/07/15 09:31:06;;;;;;;2.00;1.90;;;;;;;;;;4728834;30;20608;-77
2023/07/15 09:33:35;;;;;;;1.52;1.42;;;;;;;;;;4728240;30;20577;-80
2023/07/15 09:36:03;;;;;;;1.60;1.50;;;;;;;;;;4726814;30;20056;-78
2023/07/15 09:38:32;;;;;;;1.52;1.52;;;;;;;;;;4723387;30;20056;-78
2023/07/15 09:41:00;;;;;;;2.30;1.45;;;;;;;;;;4724255;30;20131;-77
2023/07/15 09:43:47;;;;;;;1.70;1.60;;;;;;;;;;4725205;30;20064;-77
2023/07/15 09:46:16;;;;;;;1.48;1.42;;;;;;;;;;4722496;30;20138;-77
2023/07/15 09:48:45;;;;;;;1.48;1.48;;;;;;;;;;4720089;30;20076;-76
2023/07/15 09:51:13;;;;;;;2.08;1.60;;;;;;;;;;4725664;30;20274;-81
2023/07/15 09:54:07;;;;;;;1.55;1.40;;;;;;;;;;4728469;30;20057;-78
2023/07/15 09:56:36;;;;;;;2.65;1.95;;;;;;;;;;4725556;30;20080;-78
2023/07/15 09:59:16;;;;;;;4.47;1.80;;;;;;;;;;4724501;30;20454;-77
2023/07/15 10:02:13;;;;;;;1.67;1.58;;;;;;;;;;4723748;30;20055;-77
2023/07/15 10:04:45;;;;;;;1.95;1.50;;;;;;;;;;4712609;30;20452;-77
2023/07/15 10:07:13;;;;;;;1.60;1.50;;;;;;;;;;4724573;30;20424;-78
2023/07/15 10:09:40;;;;;;;1.52;1.50;;;;;;;;;;4720980;30;20447;-77
2023/07/15 10:12:08;;;;;;;1.58;1.48;;;;;;;;;;4724272;30;20070;-79
2023/07/15 10:14:36;;;;;;;1.60;1.50;;;;;;;;;;4723302;30;20061;-77
2023/07/15 10:17:21;;;;;;;1.60;1.42;;;;;;;;;;4742624;24;20533;-87
2023/07/15 10:20:31;;;;;;;2.25;1.58;;;;;;;;;;4744469;30;20063;-89
2023/07/15 10:23:41;;;;;;;;;;;;;;;;;;;;;
2023/07/15 10:26:21;;;;;;;1.20;1.10;;;;;;;;;;4729265;30;20055;-88
2023/07/15 10:28:53;;;;;;;1.38;1.33;;;;;;;;;;4736216;30;20053;-87
2023/07/15 10:31:24;;;;;;;3.03;1.58;;;;;;;;;;4734884;30;20151;-89
2023/07/15 10:33:57;;;;;;;1.20;1.20;;;;;;;;;;4738959;30;20901;-87
2023/07/15 10:36:45;;;;;;;1.42;1.17;;;;;;;;;;4741385;30;20059;-85
2023/07/15 10:39:20;;;;;;;1.52;1.00;;;;;;;;;;4739979;30;20057;-86
2023/07/15 10:41:53;;;;;;;1.20;1.20;;;;;;;;;;4734434;30;20127;-89
2023/07/15 10:44:38;;;;;;;1.20;1.10;;;;;;;;;;4736209;30;20060;-87
2023/07/15 10:47:06;;;;;;;1.10;1.10;;;;;;;;;;4734722;30;20053;-87
2023/07/15 10:49:34;;;;;;;1.30;1.20;;;;;;;;;;4743582;30;20057;-87
2023/07/15 10:52:05;;;;;;;1.75;1.20;;;;;;;;;;4743813;30;20044;-88
2023/07/15 10:54:40;;;;;;;1.10;1.00;;;;;;;;;;4732813;30;20056;-86
2023/07/15 10:57:17;;;;;;;1.42;1.10;;;;;;;;;;4756576;30;20060;-87
2023/07/15 10:59:45;;;;;;;1.15;1.15;;;;;;;;;;4747518;30;20044;-87
2023/07/15 11:02:13;;;;;;;1.20;1.20;;;;;;;;;;4744059;30;20061;-88
2023/07/15 11:04:41;;;;;;;1.10;1.10;;;;;;;;;;4743733;30;20072;-87
2023/07/15 11:07:13;;;;;;;1.00;1.00;;;;;;;;;;4737793;30;20052;-87
2023/07/15 11:09:41;;;;;;;1.00;1.00;;;;;;;;;;4742349;30;20090;-86
2023/07/15 11:12:30;;;;;;;1.20;1.20;;;;;;;;;;4737049;30;20561;-90
2023/07/15 11:18:58;;;;;;;0.88;0.88;;;;;;;;;;4743853;30;20140;-87
2023/07/15 11:21:26;;;;;;;1.00;0.90;;;;;;;;;;4738763;30;20057;-86
2023/07/15 11:23:57;;;;;;;0.98;0.98;;;;;;;;;;4739246;30;20122;-88
2023/07/15 11:26:29;;;;;;;0.85;0.85;;;;;;;;;;4734763;30;20083;-87
2023/07/15 11:28:57;;;;;;;2.08;1.00;;;;;;;;;;4739693;30;20087;-86
2023/07/15 11:31:30;;;;;;;1.13;1.08;;;;;;;;;;4739366;30;20083;-87
2023/07/15 11:33:58;;;;;;;1.70;0.90;;;;;;;;;;4737493;30;20444;-87
2023/07/15 11:36:27;;;;;;;1.00;1.00;;;;;;;;;;4736318;30;20111;-84
2023/07/15 11:38:56;;;;;;;0.90;0.90;;;;;;;;;;4733226;30;20061;-87
2023/07/15 11:41:27;;;;;;;1.00;1.00;;;;;;;;;;4730213;30;20060;-88
2023/07/15 11:43:57;;;;;;;0.88;0.88;;;;;;;;;;4731237;30;21300;-87
2023/07/15 11:46:25;;;;;;;0.98;0.98;;;;;;;;;;4736138;30;20504;-86
2023/07/15 11:48:59;;;;;;;1.00;0.70;;;;;;;;;;4737746;30;20439;-85
2023/07/15 11:51:54;;;;;;;0.88;0.85;;;;;;;;;;4727959;30;20076;-89
2023/07/15 11:54:34;;;;;;;3.22;0.90;;;;;;;;;;4724748;30;20428;-85
2023/07/15 11:57:09;;;;;;;1.17;0.90;;;;;;;;;;4727885;30;20608;-88
2023/07/15 11:59:40;;;;;;;1.15;1.15;;;;;;;;;;4728793;30;20052;-90
2023/07/15 12:02:15;;;;;;;0.90;0.90;;;;;;;;;;4730711;30;20048;-86
2023/07/15 12:04:43;;;;;;;0.77;0.77;;;;;;;;;;4736138;30;20063;-88
2023/07/15 12:07:10;;;;;;;1.50;0.57;;;;;;;;;;4741459;30;20075;-88
2023/07/15 12:09:39;;;;;;;0.50;0.50;;;;;;;;;;4733120;30;20052;-86
2023/07/15 12:12:13;;;;;;;0.52;0.52;;;;;;;;;;4733421;30;20078;-86
2023/07/15 12:14:47;;;;;;;0.60;0.60;;;;;;;;;;4732954;30;20057;-87
2023/07/15 12:17:24;;;;;;;0.70;0.70;;;;;;;;;;4729769;30;20082;-87
2023/07/15 12:19:52;;;;;;;0.60;0.60;;;;;;;;;;4730495;30;20424;-86
2023/07/15 12:22:22;;;;;;;0.80;0.80;;;;;;;;;;4726665;30;20041;-87
2023/07/15 12:24:50;;;;;;;0.50;0.50;;;;;;;;;;4732179;30;20505;-86
2023/07/15 12:27:28;;;;;;;0.70;0.70;;;;;;;;;;4730441;30;20053;-88
2023/07/15 12:29:57;;;;;;;0.55;0.55;;;;;;;;;;4723641;30;20227;-87
2023/07/15 12:33:13;;;;;;;1.50;0.57;;;;;;;;;;4732965;30;20061;-87
2023/07/15 12:35:44;;;;;;;0.60;0.60;;;;;;;;;;4730957;30;20092;-89
2023/07/15 12:38:18;;;;;;;0.60;0.60;;;;;;;;;;4733524;30;20060;-87
2023/07/15 12:40:50;;;;;;;0.82;0.60;;;;;;;;;;4733342;30;20075;-86
2023/07/15 12:43:25;;;;;;;0.60;0.60;;;;;;;;;;4726741;30;20136;-86
2023/07/15 12:46:03;;;;;;;1.15;0.70;;;;;;;;;;4719749;30;20064;-87
2023/07/15 12:48:32;;;;;;;1.65;0.77;;;;;;;;;;4729274;30;20087;-87
2023/07/15 12:50:59;;;;;;;0.47;0.47;;;;;;;;;;4742900;30;20036;-86
2023/07/15 12:53:27;;;;;;;1.85;0.63;;;;;;;;;;4743617;30;20080;-87
2023/07/15 12:55:54;;;;;;;0.50;0.50;;;;;;;;;;4739431;30;20053;-88
2023/07/15 12:58:23;;;;;;;0.50;0.50;;;;;;;;;;4729597;30;20163;-88
2023/07/15 13:00:50;;;;;;;0.45;0.45;;;;;;;;;;4732716;30;20127;-87
2023/07/15 13:03:18;;;;;;;0.47;0.47;;;;;;;;;;4731772;30;20120;-86
2023/07/15 13:05:46;;;;;;;0.30;0.30;;;;;;;;;;4731009;30;20084;-87
2023/07/15 13:08:15;;;;;;;0.50;0.50;;;;;;;;;;4735249;30;20060;-86
2023/07/15 13:11:28;;;;;;;0.47;0.47;;;;;;;;;;4730812;30;20128;-88
2023/07/15 13:13:56;;;;;;;0.73;0.50;;;;;;;;;;4730197;30;20082;-88
2023/07/15 13:16:23;;;;;;;0.80;0.80;;;;;;;;;;4731577;30;20080;-89
2023/07/15 13:18:51;;;;;;;2.15;0.50;;;;;;;;;;4731915;30;20049;-87
2023/07/15 13:21:18;;;;;;;0.50;0.50;;;;;;;;;;4729351;30;20558;-87
2023/07/15 13:23:46;;;;;;;0.60;0.60;;;;;;;;;;4730905;30;20592;-87
2023/07/15 13:26:14;;;;;;;0.70;0.70;;;;;;;;;;4720478;30;20087;-88
2023/07/15 13:28:44;;;;;;;0.63;0.60;;;;;;;;;;4729565;30;20072;-86
2023/07/15 13:31:12;;;;;;;0.68;0.68;;;;;;;;;;4730822;30;20060;-87
2023/07/15 13:33:40;;;;;;;0.50;0.50;;;;;;;;;;4730241;30;20446;-87
2023/07/15 13:36:08;;;;;;;0.90;0.90;;;;;;;;;;4727137;30;20045;-88
2023/07/15 13:38:35;;;;;;;2.38;0.57;;;;;;;;;;4726691;30;20080;-87
2023/07/15 13:41:02;;;;;;;1.65;0.55;;;;;;;;;;4723417;30;20048;-86
2023/07/15 13:43:30;;;;;;;0.60;0.60;;;;;;;;;;4730628;30;20492;-87
2023/07/15 13:45:58;;;;;;;0.60;0.60;;;;;;;;;;4729298;30;20112;-87
2023/07/15 13:48:25;;;;;;;0.60;0.60;;;;;;;;;;4723421;30;20053;-86
2023/07/15 13:50:52;;;;;;;0.63;0.50;;;;;;;;;;4733624;30;20057;-87
2023/07/15 13:53:20;;;;;;;0.60;0.50;;;;;;;;;;4726115;30;20060;-88
2023/07/15 13:55:47;;;;;;;0.52;0.50;;;;;;;;;;4731999;30;20053;-87
2023/07/15 13:58:15;;;;;;;0.85;0.50;;;;;;;;;;4728987;30;20339;-87
2023/07/15 14:00:44;;;;;;;0.50;0.50;;;;;;;;;;4731637;30;20459;-87
2023/07/15 14:03:11;;;;;;;0.60;0.60;;;;;;;;;;4737353;30;20056;-86
2023/07/15 14:05:39;;;;;;;0.52;0.52;;;;;;;;;;4727702;30;20459;-87
2023/07/15 14:08:07;;;;;;;0.60;0.60;;;;;;;;;;4737688;30;20116;-86
2023/07/15 14:10:34;;;;;;;0.50;0.50;;;;;;;;;;4739932;30;20059;-86
2023/07/15 14:13:01;;;;;;;0.50;0.50;;;;;;;;;;4751412;30;20049;-87
2023/07/15 14:15:30;;;;;;;0.50;0.50;;;;;;;;;;4754169;30;20048;-86
2023/07/15 14:18:00;;;;;;;0.50;0.50;;;;;;;;;;4742784;30;20059;-87
2023/07/15 14:20:28;;;;;;;0.50;0.50;;;;;;;;;;4734759;30;20048;-86
2023/07/15 14:22:55;;;;;;;0.50;0.50;;;;;;;;;;4735943;30;20112;-86
2023/07/15 14:25:23;;;;;;;0.40;0.40;;;;;;;;;;4735495;30;20508;-87
2023/07/15 14:27:51;;;;;;;0.55;0.55;;;;;;;;;;4734362;30;20048;-87
2023/07/15 14:30:18;;;;;;;0.40;0.40;;;;;;;;;;4728735;30;20474;-87
2023/07/15 14:32:46;;;;;;;0.38;0.38;;;;;;;;;;4735681;30;20143;-87
2023/07/15 14:35:13;;;;;;;0.95;0.52;;;;;;;;;;4734420;30;20052;-87
2023/07/15 14:37:40;;;;;;;0.52;0.52;;;;;;;;;;4734267;30;20048;-87
2023/07/15 14:40:10;;;;;;;0.60;0.40;;;;;;;;;;4735619;30;20683;-87
2023/07/15 14:42:38;;;;;;;0.47;0.47;;;;;;;;;;4730128;30;20076;-87
2023/07/15 14:45:06;;;;;;;0.43;0.43;;;;;;;;;;4735156;30;20068;-87
2023/07/15 14:47:35;;;;;;;0.50;0.50;;;;;;;;;;4736211;30;20048;-87
2023/07/15 14:50:03;;;;;;;0.40;0.40;;;;;;;;;;4728692;30;20062;-88
2023/07/15 14:52:30;;;;;;;1.52;0.43;;;;;;;;;;4735465;30;20083;-87
2023/07/15 14:54:58;;;;;;;0.63;0.50;;;;;;;;;;4726683;30;20138;-87
2023/07/15 14:57:25;;;;;;;0.45;0.40;;;;;;;;;;4730126;30;20405;-88
2023/07/15 14:59:52;;;;;;;0.52;0.50;;;;;;;;;;4735245;30;20131;-88
2023/07/15 15:02:23;;;;;;;0.55;0.55;;;;;;;;;;4733417;30;20041;-87